Time;durP1;ratioP1;P1;durP2;ratioP2;P2;SDS_P1;SDS_P2;PMS_P1;PMS_P2;Temp;Humidity;BMP_temperature;BMP_pressure;BME280_temperature;BME280_humidity;BME280_pressure;Samples;Min_cycle;Max_cycle;Signal;HPM_P1;HPM_P2
2022/04/22 09:10:21;;;;;;;19.90;10.15;;;16.40;64.20;;;;;;5066158;27;20134;-72
2022/04/22 09:12:52;;;;;;;14.95;8.73;;;20.10;53.50;;;;;;5026924;28;20021;-72
2022/04/22 09:15:21;;;;;;;;;;;22.30;45.40;;;;;;5022096;28;20550;-73
2022/04/22 09:17:47;;;;;;;11.98;8.15;;;24.60;43.90;;;;;;5023221;28;20011;-73
2022/04/22 09:20:17;;;;;;;11.60;7.80;;;25.00;39.20;;;;;;5028743;28;20127;-73
2022/04/22 09:22:46;;;;;;;14.50;7.70;;;24.20;38.00;;;;;;5027520;28;20044;-73
2022/04/22 09:25:11;;;;;;;11.35;7.00;;;23.00;39.90;;;;;;5026538;28;20463;-73
2022/04/22 09:27:38;;;;;;;9.82;7.20;;;21.80;43.30;;;;;;5038671;28;20037;-73
2022/04/22 09:30:09;;;;;;;13.18;7.30;;;21.50;43.40;;;;;;5035927;28;20041;-73
2022/04/22 09:32:39;;;;;;;11.00;6.88;;;21.40;45.20;;;;;;5034450;28;20017;-73
2022/04/22 09:35:20;;;;;;;10.45;7.15;;;22.10;45.80;;;;;;5026386;28;20033;-74
2022/04/22 09:43:33;;;;;;;14.68;8.52;;;19.20;51.20;;;;;;5035312;28;20063;-74
2022/04/22 09:45:59;;;;;;;12.13;7.47;;;19.00;54.10;;;;;;5038550;28;20075;-73
2022/04/22 09:48:24;;;;;;;13.13;7.82;;;20.40;52.00;;;;;;5054507;28;20107;-74
2022/04/22 09:50:55;;;;;;;10.75;7.85;;;22.20;44.70;;;;;;5056973;28;20029;-73
2022/04/22 09:53:35;;;;;;;12.02;8.50;;;22.20;44.30;;;;;;5037190;28;20044;-74
2022/04/22 09:56:06;;;;;;;12.43;7.90;;;21.20;45.30;;;;;;5039699;28;20038;-72
2022/04/22 09:58:32;;;;;;;9.65;8.15;;;20.40;49.00;;;;;;5038602;28;20044;-73
2022/04/22 10:01:04;;;;;;;13.43;8.65;;;19.80;48.40;;;;;;5039271;28;20017;-74
2022/04/22 10:03:35;;;;;;;14.25;8.10;;;19.40;50.20;;;;;;5035986;28;20035;-73
2022/04/22 10:06:02;;;;;;;14.23;9.60;;;19.90;51.10;;;;;;5038758;28;20048;-73
2022/04/22 10:08:39;;;;;;;15.10;9.48;;;19.70;50.20;;;;;;5010701;28;20118;-73
2022/04/22 10:11:06;;;;;;;12.60;9.03;;;19.00;52.30;;;;;;4679443;28;10000249;-74
2022/04/22 10:13:40;;;;;;;14.07;8.93;;;18.80;54.90;;;;;;5046926;28;20277;-73
2022/04/22 10:16:08;;;;;;;11.02;8.63;;;18.70;52.80;;;;;;5026951;28;20112;-74
2022/04/22 10:18:34;;;;;;;11.93;8.60;;;18.40;54.60;;;;;;5026735;28;20512;-73
2022/04/22 10:21:01;;;;;;;13.30;9.00;;;18.10;56.60;;;;;;5018395;28;20025;-74
2022/04/22 10:23:30;;;;;;;11.80;8.45;;;18.70;56.20;;;;;;5019054;28;20762;-73
2022/04/22 10:25:56;;;;;;;14.13;8.90;;;19.60;53.40;;;;;;5023426;28;20329;-73
2022/04/22 10:28:25;;;;;;;13.80;8.15;;;20.80;48.70;;;;;;5027465;28;20037;-74
2022/04/22 10:30:55;;;;;;;12.77;8.48;;;20.70;49.00;;;;;;5021413;28;20032;-74
2022/04/22 10:33:25;;;;;;;11.32;8.82;;;19.70;50.60;;;;;;5063818;28;20044;-73
2022/04/22 10:35:58;;;;;;;12.80;8.43;;;18.90;52.40;;;;;;5026450;28;20100;-74
2022/04/22 10:38:35;;;;;;;11.55;7.93;;;18.50;54.10;;;;;;5033853;28;20051;-73
2022/04/22 10:41:02;;;;;;;14.18;9.60;;;18.00;56.50;;;;;;5021512;28;20104;-73
2022/04/22 10:43:28;;;;;;;12.43;9.10;;;17.80;55.20;;;;;;5007866;28;20026;-73
2022/04/22 10:48:40;;;;;;;13.77;9.02;;;17.90;55.80;;;;;;5008470;28;20106;-73
2022/04/22 10:51:09;;;;;;;17.75;8.90;;;17.70;55.80;;;;;;5017309;28;20029;-73
2022/04/22 10:53:46;;;;;;;10.75;8.50;;;17.90;57.00;;;;;;5015140;28;20042;-73
2022/04/22 10:56:30;;;;;;;13.25;10.07;;;18.10;56.10;;;;;;5013363;28;20939;-73
2022/04/22 10:59:20;;;;;;;10.93;7.88;;;17.90;55.80;;;;;;5010200;28;20037;-74
2022/04/22 11:01:47;;;;;;;17.77;9.55;;;17.80;57.10;;;;;;4998865;28;20617;-73
2022/04/22 11:04:26;;;;;;;13.90;9.60;;;17.90;56.80;;;;;;5021775;28;20460;-74
2022/04/22 11:06:52;;;;;;;13.27;9.57;;;18.20;56.60;;;;;;5005183;28;20511;-74
2022/04/22 11:09:29;;;;;;;14.02;9.15;;;18.10;54.50;;;;;;5012330;28;20050;-73
2022/04/22 11:11:57;;;;;;;16.30;9.63;;;17.90;55.60;;;;;;5024155;28;20400;-73
2022/04/22 11:14:25;;;;;;;14.70;8.45;;;18.50;57.60;;;;;;5027054;28;20094;-73
2022/04/22 11:16:53;;;;;;;11.07;8.50;;;19.10;51.90;;;;;;5026782;28;20381;-73
2022/04/22 11:19:19;;;;;;;14.30;8.70;;;19.00;53.30;;;;;;5031908;28;20188;-74
2022/04/22 11:21:52;;;;;;;10.43;7.85;;;18.90;52.70;;;;;;5032634;28;20138;-74
2022/04/22 11:24:32;;;;;;;15.60;8.38;;;18.90;53.00;;;;;;5028932;28;20115;-73
2022/04/22 11:27:11;;;;;;;13.75;8.88;;;18.50;55.60;;;;;;5016973;28;20507;-73
2022/04/22 11:29:42;;;;;;;12.15;8.88;;;18.40;54.20;;;;;;5032266;28;20402;-74
2022/04/22 11:32:14;;;;;;;10.90;8.40;;;18.60;55.20;;;;;;5028795;28;20029;-74
2022/04/22 11:34:42;;;;;;;15.20;8.70;;;18.90;55.30;;;;;;5037470;28;20175;-73
2022/04/22 11:37:19;;;;;;;15.25;8.40;;;19.10;54.40;;;;;;5032831;28;20538;-73
2022/04/22 11:39:51;;;;;;;12.88;8.38;;;19.40;52.10;;;;;;5017677;28;20044;-74
2022/04/22 11:42:18;;;;;;;12.95;8.38;;;20.10;53.40;;;;;;5007701;28;20048;-74
2022/04/22 11:45:06;;;;;;;13.32;9.40;;;20.50;49.40;;;;;;5036852;28;20560;-74
2022/04/22 11:47:32;;;;;;;13.50;8.85;;;19.90;49.60;;;;;;5009552;28;20101;-73
2022/04/22 11:49:59;;;;;;;12.38;8.52;;;19.10;51.60;;;;;;5013752;28;20539;-74
2022/04/22 11:52:28;;;;;;;15.20;8.93;;;18.10;55.10;;;;;;5026689;28;20028;-74
2022/04/22 11:55:01;;;;;;;17.35;9.35;;;17.50;56.00;;;;;;5008929;28;20029;-73
2022/04/22 11:57:32;;;;;;;15.90;9.32;;;17.00;58.90;;;;;;5017049;28;20040;-73
2022/04/22 12:05:34;;;;;;;12.82;8.25;;;17.30;59.80;;;;;;5022925;28;20047;-74
2022/04/22 12:08:01;;;;;;;14.18;8.38;;;17.90;60.90;;;;;;5027609;28;20515;-73
2022/04/22 12:10:30;;;;;;;11.52;8.10;;;18.10;57.10;;;;;;5021807;28;20045;-73
2022/04/22 12:13:03;;;;;;;10.10;7.80;;;17.90;55.80;;;;;;5018309;28;20056;-73
2022/04/22 12:15:30;;;;;;;10.10;7.55;;;17.80;57.30;;;;;;5035584;28;20800;-74
2022/04/22 12:17:57;;;;;;;13.18;7.43;;;17.90;57.60;;;;;;5006711;28;20094;-74
2022/04/22 12:20:25;;;;;;;10.60;6.85;;;18.20;56.10;;;;;;5023573;28;20033;-73
2022/04/22 12:22:52;;;;;;;11.48;7.90;;;18.00;55.40;;;;;;5022676;28;20056;-73
2022/04/22 12:25:20;;;;;;;10.30;7.22;;;17.70;56.40;;;;;;5031993;28;20222;-73
2022/04/22 12:28:08;;;;;;;12.35;6.72;;;17.50;56.30;;;;;;5018853;28;20040;-73
2022/04/22 12:30:36;;;;;;;13.88;7.43;;;17.50;54.80;;;;;;5018615;28;20065;-74
2022/04/22 12:33:03;;;;;;;10.60;6.40;;;17.80;55.40;;;;;;5021348;28;20040;-73
2022/04/22 12:35:28;;;;;;;9.45;5.88;;;18.30;54.50;;;;;;5026787;28;20372;-73
2022/04/22 12:37:58;;;;;;;11.80;6.15;;;18.70;52.70;;;;;;5006091;28;20035;-74
2022/04/22 12:40:23;;;;;;;12.93;6.18;;;19.10;51.80;;;;;;5014967;28;20036;-73
2022/04/22 12:42:50;;;;;;;10.32;5.80;;;19.20;51.20;;;;;;5045230;28;20486;-73
2022/04/22 12:53:50;;;;;;;10.60;6.00;;;19.10;53.80;;;;;;5018214;28;20032;-73
2022/04/22 12:56:16;;;;;;;9.73;6.28;;;19.40;52.90;;;;;;4992770;28;20739;-73
2022/04/22 12:58:55;;;;;;;9.98;6.10;;;18.60;53.00;;;;;;5010137;28;20117;-73
2022/04/22 13:01:25;;;;;;;13.00;6.95;;;18.20;53.00;;;;;;5017286;28;20043;-74
2022/04/22 13:03:51;;;;;;;10.15;7.50;;;17.80;54.40;;;;;;5007065;28;20070;-73
2022/04/22 13:06:39;;;;;;;10.95;7.13;;;17.60;55.50;;;;;;5013159;28;20108;-73
2022/04/22 13:09:06;;;;;;;11.00;6.90;;;17.10;55.50;;;;;;5011594;28;20464;-73
2022/04/22 13:11:32;;;;;;;11.00;5.63;;;16.60;56.40;;;;;;5024517;28;20155;-73
2022/04/22 13:13:58;;;;;;;8.38;6.20;;;16.40;58.30;;;;;;5009925;28;20547;-73
2022/04/22 13:16:24;;;;;;;9.85;6.65;;;16.40;57.50;;;;;;5011086;28;20033;-73
2022/04/22 13:18:49;;;;;;;12.93;6.13;;;16.70;56.60;;;;;;5021708;28;20472;-73
2022/04/22 13:21:15;;;;;;;8.10;5.63;;;16.90;59.30;;;;;;5019866;28;20389;-74
2022/04/22 13:23:40;;;;;;;10.02;6.15;;;16.80;57.70;;;;;;5037440;28;20103;-73
2022/04/22 13:26:06;;;;;;;14.30;6.60;;;16.50;57.50;;;;;;5007787;28;20029;-73
2022/04/22 13:28:32;;;;;;;9.73;6.47;;;16.20;58.40;;;;;;5015487;28;20448;-72
2022/04/22 13:30:58;;;;;;;12.35;7.95;;;16.00;59.50;;;;;;5018353;28;20041;-73
2022/04/22 13:33:24;;;;;;;12.25;6.93;;;16.00;58.20;;;;;;5021709;28;20021;-73
2022/04/22 13:35:49;;;;;;;11.25;8.23;;;16.00;59.60;;;;;;5018391;28;20033;-73
2022/04/22 13:38:15;;;;;;;13.93;8.68;;;16.20;58.80;;;;;;5012908;28;20032;-74
2022/04/22 13:40:41;;;;;;;12.15;8.88;;;16.30;57.80;;;;;;5012039;28;20124;-74
2022/04/22 13:43:06;;;;;;;12.40;7.88;;;16.20;58.60;;;;;;4997506;28;20123;-73
2022/04/22 13:53:45;;;;;;;14.25;8.32;;;15.90;59.70;;;;;;5014452;28;20056;-74
2022/04/22 13:56:11;;;;;;;17.15;9.35;;;16.00;62.80;;;;;;5018766;28;20259;-74
2022/04/22 13:58:39;;;;;;;13.80;9.93;;;16.20;59.10;;;;;;5026630;28;20485;-74
2022/04/22 14:01:05;;;;;;;10.20;7.88;;;16.50;58.30;;;;;;5012661;28;20025;-74
2022/04/22 14:03:31;;;;;;;11.20;7.95;;;16.30;60.10;;;;;;5019149;28;20044;-74
2022/04/22 14:05:57;;;;;;;13.27;8.90;;;16.30;59.90;;;;;;5011431;28;20035;-73
2022/04/22 14:08:23;;;;;;;16.08;9.18;;;16.00;59.90;;;;;;5021877;28;20042;-74
2022/04/22 14:10:49;;;;;;;16.10;10.85;;;15.80;60.00;;;;;;5010886;28;20021;-73
2022/04/22 14:13:14;;;;;;;18.75;9.75;;;15.60;62.10;;;;;;5016929;28;20116;-74
2022/04/22 14:15:43;;;;;;;17.55;10.82;;;15.40;62.80;;;;;;5016987;28;20092;-74
2022/04/22 14:18:09;;;;;;;16.73;9.15;;;15.30;62.60;;;;;;5012568;28;20039;-74
2022/04/22 14:20:35;;;;;;;21.35;10.80;;;15.30;63.70;;;;;;5013059;28;20060;-74
2022/04/22 14:23:01;;;;;;;19.00;10.98;;;15.30;63.50;;;;;;4313665;28;10000538;-74
2022/04/22 14:25:27;;;;;;;19.08;12.00;;;15.20;63.10;;;;;;5014226;28;20569;-74
2022/04/22 14:27:53;;;;;;;19.83;11.77;;;15.10;63.80;;;;;;5033569;28;20756;-74
2022/04/22 14:30:19;;;;;;;20.75;12.02;;;14.90;63.50;;;;;;5020325;28;20486;-74
2022/04/22 14:32:45;;;;;;;19.90;13.23;;;15.00;65.70;;;;;;5019632;28;20026;-74
2022/04/22 14:35:11;;;;;;;20.15;12.75;;;14.90;66.00;;;;;;5012393;28;20039;-74
2022/04/22 14:37:37;;;;;;;20.45;14.27;;;14.80;64.70;;;;;;5021072;28;20056;-74
2022/04/22 14:40:03;;;;;;;23.67;14.02;;;14.60;64.60;;;;;;5017278;28;20116;-74
2022/04/22 14:42:29;;;;;;;22.10;12.25;;;14.60;65.30;;;;;;5023201;28;20088;-74
2022/04/22 14:44:55;;;;;;;19.70;13.63;;;14.60;67.20;;;;;;4995908;28;20034;-74
2022/04/22 14:47:21;;;;;;;22.90;13.98;;;14.70;64.80;;;;;;5045287;28;20036;-74
2022/04/22 14:49:47;;;;;;;23.17;13.80;;;14.60;66.30;;;;;;5028080;28;20389;-74
2022/04/22 14:52:13;;;;;;;21.58;13.45;;;14.70;67.30;;;;;;5016637;28;20033;-74
2022/04/22 14:54:39;;;;;;;23.83;13.48;;;14.60;66.60;;;;;;5005061;28;20028;-74
2022/04/22 14:57:05;;;;;;;28.55;13.70;;;14.70;67.60;;;;;;5009468;28;20528;-74
2022/04/22 14:59:33;;;;;;;23.25;13.95;;;14.90;66.60;;;;;;5006341;28;20089;-74
2022/04/22 15:01:59;;;;;;;21.80;13.98;;;15.00;64.50;;;;;;5008843;28;20022;-74
2022/04/22 15:04:25;;;;;;;20.83;14.07;;;14.90;65.50;;;;;;5019707;28;20143;-74
2022/04/22 15:06:51;;;;;;;22.92;13.95;;;14.80;66.40;;;;;;5001869;28;20366;-74
2022/04/22 15:09:17;;;;;;;27.40;15.18;;;14.70;65.50;;;;;;5007673;28;20127;-74
2022/04/22 15:11:44;;;;;;;22.92;15.38;;;14.70;66.20;;;;;;5004279;28;20084;-73
2022/04/22 15:14:10;;;;;;;24.10;15.05;;;14.50;66.80;;;;;;5038494;28;20638;-73
2022/04/22 15:16:36;;;;;;;21.13;14.38;;;14.50;68.50;;;;;;5016136;28;20503;-74
2022/04/22 15:24:32;;;;;;;20.55;13.45;;;14.80;67.40;;;;;;5015428;28;20381;-73
2022/04/22 15:26:58;;;;;;;22.33;13.82;;;15.00;67.90;;;;;;5043250;28;20096;-73
2022/04/22 15:29:26;;;;;;;22.20;14.75;;;15.00;67.90;;;;;;5016339;28;20872;-73
2022/04/22 15:31:51;;;;;;;22.17;15.57;;;15.00;67.60;;;;;;5038828;28;20172;-73
2022/04/22 15:34:20;;;;;;;23.08;14.38;;;15.00;66.00;;;;;;5015379;28;20026;-73
2022/04/22 15:36:47;;;;;;;23.35;15.15;;;14.90;66.80;;;;;;5018762;28;20068;-73
2022/04/22 15:39:13;;;;;;;25.15;14.55;;;15.00;66.40;;;;;;5013726;28;20252;-73
2022/04/22 15:41:41;;;;;;;25.33;14.32;;;15.20;66.20;;;;;;5037859;28;20444;-72
2022/04/22 15:44:08;;;;;;;24.00;13.55;;;15.10;66.50;;;;;;5010371;28;20033;-72
2022/04/22 15:46:33;;;;;;;24.33;15.23;;;15.20;66.00;;;;;;5007655;28;21458;-73
2022/04/22 15:48:59;;;;;;;20.27;13.18;;;15.30;66.30;;;;;;5016897;28;20130;-73
2022/04/22 15:51:25;;;;;;;22.38;13.18;;;15.10;66.00;;;;;;5019377;28;20131;-73
2022/04/22 15:53:53;;;;;;;24.98;13.05;;;15.10;66.20;;;;;;5006515;28;20035;-72
2022/04/22 15:56:20;;;;;;;23.60;13.55;;;14.90;67.30;;;;;;5002164;28;20546;-73
2022/04/22 15:58:46;;;;;;;23.60;13.88;;;14.90;67.50;;;;;;5014638;28;20025;-73
2022/04/22 16:01:13;;;;;;;24.83;14.50;;;14.80;67.20;;;;;;5019976;28;20029;-72
2022/04/22 16:03:39;;;;;;;23.17;14.15;;;14.80;68.10;;;;;;5012445;28;20030;-73
2022/04/22 16:06:07;;;;;;;23.27;14.00;;;14.70;68.10;;;;;;5005852;28;20029;-73
2022/04/22 16:08:34;;;;;;;22.63;13.93;;;14.70;67.60;;;;;;5014487;28;20049;-73
2022/04/22 16:15:16;;;;;;;24.58;13.77;;;14.50;68.70;;;;;;5017767;28;20029;-73
2022/04/22 16:16:30;;;;;;;24.08;13.02;;;14.40;68.90;;;;;;5017543;28;20032;-73
2022/04/22 16:18:57;;;;;;;22.08;13.45;;;14.20;70.30;;;;;;5020756;28;20075;-73
2022/04/22 16:21:23;;;;;;;21.23;12.80;;;14.20;70.90;;;;;;5012869;28;20350;-73
2022/04/22 16:23:49;;;;;;;19.67;11.77;;;14.30;70.10;;;;;;5007402;28;20131;-73
2022/04/22 16:26:14;;;;;;;17.30;11.90;;;14.40;68.60;;;;;;5043273;28;20040;-73
2022/04/22 16:28:40;;;;;;;19.70;12.07;;;14.40;68.70;;;;;;5020964;28;20033;-73
2022/04/22 16:31:06;;;;;;;19.00;11.48;;;14.30;70.70;;;;;;5019617;28;20088;-73
2022/04/22 16:33:31;;;;;;;24.42;12.32;;;14.30;68.80;;;;;;5017127;28;20180;-73
2022/04/22 16:35:57;;;;;;;18.15;11.18;;;14.20;69.50;;;;;;5016078;28;20037;-73
2022/04/22 16:38:26;;;;;;;19.17;11.50;;;14.20;70.00;;;;;;5042682;28;20021;-73
2022/04/22 16:40:51;;;;;;;22.20;12.60;;;14.30;69.10;;;;;;5022631;28;20029;-73
2022/04/22 16:43:18;;;;;;;17.08;10.48;;;14.20;69.70;;;;;;5025286;28;20036;-72
2022/04/22 16:45:43;;;;;;;23.95;11.32;;;14.10;69.70;;;;;;5021524;28;20120;-72
2022/04/22 16:48:09;;;;;;;14.43;9.80;;;14.10;68.60;;;;;;5026582;28;20155;-73
2022/04/22 16:50:35;;;;;;;15.57;10.15;;;14.20;69.40;;;;;;5016260;28;20080;-73
2022/04/22 16:53:01;;;;;;;18.23;10.00;;;14.20;69.90;;;;;;5022186;28;20507;-73
2022/04/22 16:55:27;;;;;;;16.75;9.48;;;14.20;70.00;;;;;;5006642;28;20415;-73
2022/04/22 16:57:53;;;;;;;14.40;9.32;;;14.20;70.70;;;;;;5019950;28;20029;-73
2022/04/22 17:00:19;;;;;;;21.63;10.45;;;14.00;69.10;;;;;;5018387;28;20025;-72
2022/04/22 17:02:47;;;;;;;16.75;9.80;;;13.90;67.40;;;;;;5019697;28;20201;-73
2022/04/22 17:05:13;;;;;;;16.10;9.75;;;13.80;68.30;;;;;;5006505;28;20018;-73
2022/04/22 17:07:40;;;;;;;15.70;9.18;;;13.70;69.50;;;;;;5016709;28;20041;-73
2022/04/22 17:10:07;;;;;;;15.43;8.80;;;13.70;69.00;;;;;;5020661;28;20218;-73
2022/04/22 17:12:33;;;;;;;17.02;8.95;;;13.70;69.60;;;;;;4998102;28;20037;-74
2022/04/22 17:23:13;;;;;;;16.30;7.50;;;13.90;68.00;;;;;;5016550;28;20729;-73
2022/04/22 17:25:39;;;;;;;15.05;8.50;;;13.90;68.00;;;;;;5007898;28;20029;-73
2022/04/22 17:28:05;;;;;;;15.45;8.18;;;13.90;67.60;;;;;;4999419;28;20030;-73
2022/04/22 17:30:31;;;;;;;19.65;8.68;;;13.90;68.70;;;;;;5007923;28;20037;-73
2022/04/22 17:32:57;;;;;;;13.27;6.47;;;13.70;69.30;;;;;;5015903;28;20057;-73
2022/04/22 17:35:23;;;;;;;16.33;7.50;;;13.70;69.30;;;;;;5008604;28;20063;-73
2022/04/22 17:37:49;;;;;;;15.25;6.28;;;13.60;69.40;;;;;;5003820;28;20116;-73
2022/04/22 17:40:20;;;;;;;15.43;6.72;;;13.60;69.70;;;;;;5018487;28;20038;-73
2022/04/22 17:42:46;;;;;;;16.33;6.20;;;13.50;69.50;;;;;;5019777;28;20025;-72
2022/04/22 17:45:12;;;;;;;14.40;7.55;;;13.50;70.80;;;;;;4996989;28;20087;-72
2022/04/22 17:47:38;;;;;;;20.52;7.03;;;13.40;71.20;;;;;;5006873;28;20039;-73
2022/04/22 17:50:04;;;;;;;13.77;6.60;;;13.30;72.00;;;;;;5001864;28;20553;-72
2022/04/22 17:52:30;;;;;;;17.80;6.07;;;13.30;72.10;;;;;;5002702;28;20132;-72
2022/04/22 17:54:56;;;;;;;13.98;6.03;;;13.20;72.80;;;;;;5016619;28;20136;-73
2022/04/22 17:57:21;;;;;;;13.20;6.35;;;13.20;73.60;;;;;;5035551;28;20061;-72
2022/04/22 17:59:48;;;;;;;15.95;5.90;;;13.10;73.70;;;;;;5011232;28;20074;-72
2022/04/22 18:02:19;;;;;;;15.00;5.95;;;13.00;72.90;;;;;;5005132;28;20124;-72
2022/04/22 18:04:46;;;;;;;16.30;6.23;;;12.90;72.90;;;;;;5005106;28;20079;-72
2022/04/22 18:07:12;;;;;;;14.48;5.20;;;12.80;73.80;;;;;;5014862;28;20022;-72
2022/04/22 18:09:50;;;;;;;16.90;6.07;;;12.80;73.40;;;;;;5019051;28;20044;-73
2022/04/22 18:12:28;;;;;;;13.15;5.65;;;12.70;74.80;;;;;;4955842;28;20173;-75
2022/04/22 18:17:39;;;;;;;14.15;5.57;;;12.50;74.30;;;;;;4937343;28;20050;-75
2022/04/22 18:20:35;;;;;;;15.60;5.03;;;12.40;74.50;;;;;;4942240;28;20035;-75
2022/04/22 18:23:17;;;;;;;11.48;4.60;;;12.40;75.20;;;;;;4936776;28;20475;-75
2022/04/22 18:25:48;;;;;;;14.02;5.13;;;12.30;76.60;;;;;;4937811;28;20029;-75
2022/04/22 18:28:15;;;;;;;14.45;4.90;;;12.30;75.70;;;;;;4936194;28;20438;-74
2022/04/22 18:30:40;;;;;;;16.15;4.70;;;12.20;76.00;;;;;;4936816;28;20085;-75
2022/04/22 18:33:06;;;;;;;12.75;4.30;;;12.10;76.10;;;;;;4932956;28;20039;-74
2022/04/22 18:35:33;;;;;;;17.08;4.88;;;12.10;75.40;;;;;;4935508;28;20189;-74
2022/04/22 18:38:01;;;;;;;15.23;4.85;;;12.10;76.90;;;;;;4929643;28;20047;-74
2022/04/22 18:40:28;;;;;;;15.23;4.45;;;12.10;76.60;;;;;;4923445;28;20047;-74
2022/04/22 18:42:54;;;;;;;13.43;4.82;;;12.00;77.00;;;;;;4927340;28;20027;-75
2022/04/22 18:45:20;;;;;;;14.45;4.78;;;12.00;77.50;;;;;;4932007;28;20035;-74
2022/04/22 18:47:48;;;;;;;16.70;4.57;;;11.90;77.70;;;;;;4931696;28;20074;-75
2022/04/22 18:50:14;;;;;;;16.88;5.07;;;11.90;77.50;;;;;;4924168;28;20431;-74
2022/04/22 18:52:40;;;;;;;16.38;5.15;;;11.90;78.30;;;;;;4928512;28;20026;-75
2022/04/22 18:55:05;;;;;;;19.80;5.50;;;11.80;77.70;;;;;;4934472;28;20174;-73
2022/04/22 18:57:32;;;;;;;18.55;6.55;;;11.80;78.50;;;;;;4932125;28;20612;-75
2022/04/22 18:59:58;;;;;;;18.90;6.78;;;11.80;79.30;;;;;;4935553;28;20031;-74
2022/04/22 19:02:24;;;;;;;21.50;6.30;;;11.70;79.90;;;;;;4941279;28;20116;-75
2022/04/22 19:04:50;;;;;;;16.85;6.15;;;11.70;79.90;;;;;;4953281;28;20809;-74
2022/04/22 19:07:15;;;;;;;14.82;5.05;;;11.60;80.20;;;;;;4938322;28;20065;-74
2022/04/22 19:09:41;;;;;;;18.45;4.95;;;11.50;80.80;;;;;;4943457;28;20558;-74
2022/04/22 19:12:10;;;;;;;17.90;4.68;;;11.50;81.40;;;;;;4936355;28;20048;-74
2022/04/22 19:14:42;;;;;;;20.90;5.20;;;11.50;80.50;;;;;;4934169;28;20102;-74
2022/04/22 19:17:35;;;;;;;16.05;4.90;;;11.50;79.50;;;;;;4927305;28;20102;-75
2022/04/22 19:20:07;;;;;;;16.20;4.43;;;11.50;80.00;;;;;;4935754;28;20082;-74
2022/04/22 19:22:33;;;;;;;17.17;4.90;;;11.50;80.40;;;;;;4928299;28;20138;-73
2022/04/22 19:24:58;;;;;;;17.05;5.10;;;11.50;81.30;;;;;;4925692;28;20031;-73
2022/04/22 19:27:24;;;;;;;19.08;4.80;;;11.40;81.40;;;;;;4933578;28;20094;-74
2022/04/22 19:29:49;;;;;;;23.88;4.82;;;11.40;81.80;;;;;;4933755;28;20149;-74
2022/04/22 19:32:15;;;;;;;11.90;4.18;;;11.40;81.20;;;;;;4933612;28;20042;-73
2022/04/22 19:34:40;;;;;;;22.38;5.35;;;11.40;81.20;;;;;;4935927;28;20854;-74
2022/04/22 19:42:35;;;;;;;18.25;5.13;;;11.30;82.00;;;;;;4934420;28;20106;-74
2022/04/22 19:45:00;;;;;;;12.60;3.78;;;11.30;81.10;;;;;;4925892;28;20053;-74
2022/04/22 19:47:26;;;;;;;17.98;4.63;;;11.30;81.80;;;;;;4926961;28;20191;-73
2022/04/22 19:49:51;;;;;;;15.98;4.50;;;11.30;81.80;;;;;;4924825;28;20411;-73
2022/04/22 19:52:19;;;;;;;18.02;4.43;;;11.20;81.70;;;;;;4927761;28;20157;-73
2022/04/22 19:54:44;;;;;;;13.48;3.83;;;11.20;82.90;;;;;;4924687;28;20578;-73
2022/04/22 19:57:10;;;;;;;15.95;4.15;;;11.10;82.60;;;;;;4925992;28;20031;-73
2022/04/22 19:59:36;;;;;;;18.58;5.13;;;11.20;83.40;;;;;;4923536;28;20517;-73
2022/04/22 20:02:02;;;;;;;16.98;5.18;;;11.20;83.20;;;;;;4923579;28;20077;-73
2022/04/22 20:04:28;;;;;;;14.30;4.53;;;11.20;83.00;;;;;;4925296;28;20035;-74
2022/04/22 20:06:55;;;;;;;21.38;5.38;;;11.10;82.80;;;;;;4931684;28;20506;-73
2022/04/22 20:09:55;;;;;;;19.08;4.90;;;11.10;82.70;;;;;;4936626;28;20081;-73
2022/04/22 20:12:21;;;;;;;17.58;4.80;;;11.10;82.60;;;;;;4909508;28;20047;-74
2022/04/22 20:14:47;;;;;;;12.68;4.20;;;11.10;82.90;;;;;;4917319;29;20031;-74
2022/04/22 20:17:13;;;;;;;16.58;4.47;;;11.10;83.10;;;;;;4914656;29;20075;-72
2022/04/22 20:19:39;;;;;;;17.02;4.75;;;11.10;83.60;;;;;;4915584;29;20043;-74
2022/04/22 20:22:05;;;;;;;18.27;5.45;;;11.10;83.70;;;;;;4910288;29;20531;-74
2022/04/22 20:24:32;;;;;;;13.43;4.55;;;11.10;83.80;;;;;;4913268;28;20519;-72
2022/04/22 20:26:58;;;;;;;19.73;4.75;;;11.00;83.50;;;;;;4924309;29;20043;-74
2022/04/22 20:29:23;;;;;;;12.43;4.80;;;11.00;83.60;;;;;;4912184;28;20055;-73
2022/04/22 20:31:49;;;;;;;18.70;5.40;;;11.00;83.90;;;;;;4915084;28;20044;-74
2022/04/22 20:34:15;;;;;;;16.65;4.75;;;11.00;83.90;;;;;;4931849;28;20480;-73
2022/04/22 20:42:09;;;;;;;21.20;5.72;;;11.00;84.60;;;;;;4911031;29;20410;-74
2022/04/22 20:44:35;;;;;;;17.33;5.93;;;10.90;84.90;;;;;;4922054;29;20118;-73
2022/04/22 20:47:19;;;;;;;13.75;4.82;;;10.90;85.20;;;;;;4943198;28;20823;-74
2022/04/22 20:49:46;;;;;;;16.88;4.75;;;10.90;85.20;;;;;;4917283;28;20795;-73
2022/04/22 20:52:11;;;;;;;18.00;5.15;;;10.90;85.70;;;;;;4916896;28;20278;-74
2022/04/22 20:54:37;;;;;;;16.33;5.38;;;10.90;85.40;;;;;;4919659;29;20433;-72
2022/04/22 20:57:03;;;;;;;17.80;5.93;;;10.90;85.90;;;;;;4919254;28;20322;-73
2022/04/22 20:59:28;;;;;;;16.70;5.63;;;10.90;85.40;;;;;;4910897;29;20035;-74
2022/04/22 21:01:54;;;;;;;18.20;6.20;;;10.90;85.50;;;;;;4910875;29;20105;-75
2022/04/22 21:04:20;;;;;;;17.70;6.30;;;11.00;84.70;;;;;;4910062;29;20736;-73
2022/04/22 21:06:46;;;;;;;14.85;5.60;;;11.00;85.20;;;;;;4909976;29;20071;-73
2022/04/22 21:09:11;;;;;;;15.20;6.03;;;11.00;84.90;;;;;;4913190;29;20039;-72
2022/04/22 21:11:37;;;;;;;14.80;5.30;;;11.00;85.50;;;;;;4924656;28;20105;-73
2022/04/22 21:14:03;;;;;;;19.02;6.38;;;11.00;85.00;;;;;;4906087;28;20525;-74
2022/04/22 21:16:29;;;;;;;13.45;5.60;;;11.00;84.60;;;;;;4932773;28;20031;-75
2022/04/22 21:18:55;;;;;;;17.13;5.10;;;11.00;85.00;;;;;;4933750;28;20076;-74
2022/04/22 21:21:20;;;;;;;13.18;5.60;;;11.00;84.90;;;;;;4937297;28;20674;-74
2022/04/22 21:23:46;;;;;;;17.30;6.38;;;11.00;84.10;;;;;;4936660;28;20027;-74
2022/04/22 21:26:12;;;;;;;12.57;6.13;;;11.00;84.50;;;;;;4931590;28;20035;-74
2022/04/22 21:28:38;;;;;;;19.70;5.82;;;11.00;84.80;;;;;;4936428;28;20044;-75
2022/04/22 21:31:04;;;;;;;16.42;6.40;;;11.00;84.30;;;;;;4936378;28;20035;-74
2022/04/22 21:33:30;;;;;;;16.05;6.15;;;11.00;83.70;;;;;;4934039;28;20027;-73
2022/04/22 21:35:56;;;;;;;14.55;5.82;;;11.00;83.40;;;;;;4901487;28;20082;-74
2022/04/22 21:38:21;;;;;;;15.48;5.32;;;11.00;83.50;;;;;;4941475;28;20047;-77
2022/04/22 21:40:48;;;;;;;15.07;5.70;;;11.00;84.20;;;;;;4936754;28;20030;-75
2022/04/22 21:43:17;;;;;;;12.68;5.65;;;11.00;84.10;;;;;;4938462;28;20039;-75
2022/04/22 21:45:42;;;;;;;16.35;6.47;;;11.00;84.00;;;;;;4942701;28;20035;-75
2022/04/22 21:48:09;;;;;;;19.85;6.82;;;11.00;83.80;;;;;;4944153;28;20529;-75
2022/04/22 21:50:36;;;;;;;13.30;6.47;;;11.00;84.00;;;;;;4956190;28;20051;-73
2022/04/22 21:53:03;;;;;;;14.80;6.43;;;11.00;84.20;;;;;;4944487;28;20416;-74
2022/04/22 21:55:29;;;;;;;17.75;6.55;;;11.00;83.80;;;;;;4930679;29;20336;-75
2022/04/22 21:57:55;;;;;;;15.80;7.30;;;11.00;84.40;;;;;;4934867;28;20298;-73
2022/04/22 22:00:48;;;;;;;16.70;6.97;;;11.00;84.20;;;;;;4939400;28;20031;-75
2022/04/22 22:03:15;;;;;;;18.60;6.13;;;11.00;84.60;;;;;;4939048;28;20023;-73
2022/04/22 22:05:41;;;;;;;18.63;7.57;;;10.90;85.10;;;;;;4945780;28;20030;-75
2022/04/22 22:08:10;;;;;;;17.50;6.60;;;10.90;85.10;;;;;;4955603;28;20030;-75
2022/04/22 22:10:37;;;;;;;15.13;6.50;;;11.00;84.40;;;;;;4950172;28;20059;-74
2022/04/22 22:13:02;;;;;;;18.02;7.53;;;11.00;84.80;;;;;;4927309;29;20020;-73
2022/04/22 22:15:28;;;;;;;20.30;7.05;;;10.90;84.80;;;;;;4941239;28;20094;-75
2022/04/22 22:17:54;;;;;;;12.93;6.70;;;10.90;84.90;;;;;;4948003;28;20205;-74
2022/04/22 22:20:19;;;;;;;18.90;6.65;;;10.90;85.00;;;;;;4942314;28;20090;-75
2022/04/22 22:22:45;;;;;;;12.77;6.43;;;10.90;85.10;;;;;;4941951;28;20639;-74
2022/04/22 22:25:12;;;;;;;20.67;7.47;;;11.00;85.60;;;;;;4952302;28;20094;-74
2022/04/22 22:27:38;;;;;;;14.43;7.63;;;11.00;84.80;;;;;;4942916;28;20060;-74
2022/04/22 22:30:04;;;;;;;17.60;7.35;;;11.00;85.40;;;;;;4939287;28;20547;-75
2022/04/22 22:32:29;;;;;;;14.77;6.53;;;10.90;85.80;;;;;;4942165;28;20114;-74
2022/04/22 22:34:55;;;;;;;20.75;7.80;;;11.00;85.60;;;;;;4942830;28;20118;-75
2022/04/22 22:37:20;;;;;;;23.13;7.72;;;11.00;85.00;;;;;;4950733;28;20028;-75
2022/04/22 22:39:46;;;;;;;17.88;7.60;;;11.00;85.80;;;;;;4949690;28;20035;-75
2022/04/22 22:42:12;;;;;;;17.50;8.40;;;11.00;85.40;;;;;;4947814;28;20026;-74
2022/04/22 22:44:37;;;;;;;19.50;8.65;;;10.90;86.00;;;;;;4946542;28;20034;-74
2022/04/22 22:47:03;;;;;;;14.80;8.70;;;10.90;86.00;;;;;;4950690;28;20035;-75
2022/04/22 22:49:29;;;;;;;21.17;9.20;;;10.90;85.80;;;;;;4949495;28;20039;-74